sensor_id;sensor_type;location;lat;lon;timestamp;P1;durP1;ratioP1;P2;durP2;ratioP2
24259;SDS011;12384;48.112;18.418;2022-07-29T00:00:32;15.77;;;14.77;;
24259;SDS011;12384;48.112;18.418;2022-07-29T00:03:01;16.13;;;14.97;;
24259;SDS011;12384;48.112;18.418;2022-07-29T00:05:30;16.00;;;15.00;;
24259;SDS011;12384;48.112;18.418;2022-07-29T00:07:59;16.00;;;15.00;;
24259;SDS011;12384;48.112;18.418;2022-07-29T00:10:28;16.77;;;15.33;;
24259;SDS011;12384;48.112;18.418;2022-07-29T00:12:57;16.17;;;14.97;;
24259;SDS011;12384;48.112;18.418;2022-07-29T00:15:26;15.30;;;14.30;;
24259;SDS011;12384;48.112;18.418;2022-07-29T00:17:57;16.60;;;15.30;;
24259;SDS011;12384;48.112;18.418;2022-07-29T00:20:26;16.80;;;15.57;;
24259;SDS011;12384;48.112;18.418;2022-07-29T00:22:55;16.63;;;15.43;;
24259;SDS011;12384;48.112;18.418;2022-07-29T00:25:24;16.17;;;15.07;;
24259;SDS011;12384;48.112;18.418;2022-07-29T00:27:53;16.67;;;15.57;;
24259;SDS011;12384;48.112;18.418;2022-07-29T00:30:22;15.60;;;14.50;;
24259;SDS011;12384;48.112;18.418;2022-07-29T00:32:51;16.30;;;15.30;;
24259;SDS011;12384;48.112;18.418;2022-07-29T00:35:21;16.60;;;15.27;;
24259;SDS011;12384;48.112;18.418;2022-07-29T00:38:07;15.40;;;14.33;;
24259;SDS011;12384;48.112;18.418;2022-07-29T00:40:36;15.87;;;14.80;;
24259;SDS011;12384;48.112;18.418;2022-07-29T00:43:10;15.80;;;14.60;;
24259;SDS011;12384;48.112;18.418;2022-07-29T00:45:40;15.23;;;14.23;;
24259;SDS011;12384;48.112;18.418;2022-07-29T00:48:09;16.00;;;14.90;;
24259;SDS011;12384;48.112;18.418;2022-07-29T00:50:39;16.37;;;14.97;;
24259;SDS011;12384;48.112;18.418;2022-07-29T00:53:08;16.00;;;15.00;;
24259;SDS011;12384;48.112;18.418;2022-07-29T00:55:39;15.87;;;14.87;;
24259;SDS011;12384;48.112;18.418;2022-07-29T00:58:08;15.97;;;14.87;;
24259;SDS011;12384;48.112;18.418;2022-07-29T01:00:39;17.10;;;16.00;;
24259;SDS011;12384;48.112;18.418;2022-07-29T01:03:11;15.70;;;14.70;;
24259;SDS011;12384;48.112;18.418;2022-07-29T01:05:41;16.00;;;14.77;;
24259;SDS011;12384;48.112;18.418;2022-07-29T01:08:17;15.93;;;14.93;;
24259;SDS011;12384;48.112;18.418;2022-07-29T01:10:47;16.30;;;15.30;;
24259;SDS011;12384;48.112;18.418;2022-07-29T01:13:20;15.90;;;14.87;;
24259;SDS011;12384;48.112;18.418;2022-07-29T01:15:51;15.67;;;14.63;;
24259;SDS011;12384;48.112;18.418;2022-07-29T01:18:26;16.37;;;15.37;;
24259;SDS011;12384;48.112;18.418;2022-07-29T01:24:14;16.47;;;15.37;;
24259;SDS011;12384;48.112;18.418;2022-07-29T01:27:04;16.73;;;15.63;;
24259;SDS011;12384;48.112;18.418;2022-07-29T01:29:45;15.60;;;14.50;;
24259;SDS011;12384;48.112;18.418;2022-07-29T01:32:18;15.93;;;14.80;;
24259;SDS011;12384;48.112;18.418;2022-07-29T01:34:55;16.13;;;15.03;;
24259;SDS011;12384;48.112;18.418;2022-07-29T01:37:43;16.43;;;15.03;;
24259;SDS011;12384;48.112;18.418;2022-07-29T01:40:18;15.90;;;14.50;;
24259;SDS011;12384;48.112;18.418;2022-07-29T01:42:50;16.47;;;15.10;;
24259;SDS011;12384;48.112;18.418;2022-07-29T01:45:24;16.53;;;15.37;;
24259;SDS011;12384;48.112;18.418;2022-07-29T01:47:59;16.00;;;14.90;;
24259;SDS011;12384;48.112;18.418;2022-07-29T01:50:32;16.83;;;15.63;;
24259;SDS011;12384;48.112;18.418;2022-07-29T01:53:06;16.20;;;15.10;;
24259;SDS011;12384;48.112;18.418;2022-07-29T01:55:38;16.47;;;15.17;;
24259;SDS011;12384;48.112;18.418;2022-07-29T01:58:11;16.77;;;15.43;;
24259;SDS011;12384;48.112;18.418;2022-07-29T02:00:46;17.13;;;15.63;;
24259;SDS011;12384;48.112;18.418;2022-07-29T02:03:17;18.93;;;15.43;;
24259;SDS011;12384;48.112;18.418;2022-07-29T02:05:49;16.13;;;15.03;;
24259;SDS011;12384;48.112;18.418;2022-07-29T02:08:19;15.90;;;14.87;;
24259;SDS011;12384;48.112;18.418;2022-07-29T02:10:49;16.20;;;15.07;;
24259;SDS011;12384;48.112;18.418;2022-07-29T02:13:20;16.10;;;14.93;;
24259;SDS011;12384;48.112;18.418;2022-07-29T02:15:53;16.50;;;15.07;;
24259;SDS011;12384;48.112;18.418;2022-07-29T02:18:25;16.43;;;15.30;;
24259;SDS011;12384;48.112;18.418;2022-07-29T02:20:56;16.77;;;15.67;;
24259;SDS011;12384;48.112;18.418;2022-07-29T02:23:27;16.40;;;15.40;;
24259;SDS011;12384;48.112;18.418;2022-07-29T02:26:16;16.37;;;15.33;;
24259;SDS011;12384;48.112;18.418;2022-07-29T02:28:46;16.73;;;15.50;;
24259;SDS011;12384;48.112;18.418;2022-07-29T02:31:18;15.73;;;14.73;;
24259;SDS011;12384;48.112;18.418;2022-07-29T02:33:49;16.77;;;15.60;;
24259;SDS011;12384;48.112;18.418;2022-07-29T02:36:20;16.90;;;15.43;;
24259;SDS011;12384;48.112;18.418;2022-07-29T02:38:51;16.90;;;15.80;;
24259;SDS011;12384;48.112;18.418;2022-07-29T02:41:26;16.60;;;15.50;;
24259;SDS011;12384;48.112;18.418;2022-07-29T02:44:01;15.80;;;14.80;;
24259;SDS011;12384;48.112;18.418;2022-07-29T02:46:36;15.67;;;14.67;;
24259;SDS011;12384;48.112;18.418;2022-07-29T02:49:10;16.87;;;15.70;;
24259;SDS011;12384;48.112;18.418;2022-07-29T02:51:45;16.33;;;15.23;;
24259;SDS011;12384;48.112;18.418;2022-07-29T02:54:22;16.70;;;15.60;;
24259;SDS011;12384;48.112;18.418;2022-07-29T02:56:56;17.10;;;15.83;;
24259;SDS011;12384;48.112;18.418;2022-07-29T02:59:28;17.13;;;15.87;;
24259;SDS011;12384;48.112;18.418;2022-07-29T03:02:01;16.77;;;15.63;;
24259;SDS011;12384;48.112;18.418;2022-07-29T03:04:31;16.37;;;15.23;;
24259;SDS011;12384;48.112;18.418;2022-07-29T03:07:02;17.50;;;16.40;;
24259;SDS011;12384;48.112;18.418;2022-07-29T03:09:32;17.33;;;16.03;;
24259;SDS011;12384;48.112;18.418;2022-07-29T03:12:01;16.60;;;15.50;;
24259;SDS011;12384;48.112;18.418;2022-07-29T03:14:31;16.97;;;15.87;;
24259;SDS011;12384;48.112;18.418;2022-07-29T03:17:02;16.87;;;15.67;;
24259;SDS011;12384;48.112;18.418;2022-07-29T03:19:31;16.43;;;15.43;;
24259;SDS011;12384;48.112;18.418;2022-07-29T03:22:01;17.70;;;16.43;;
24259;SDS011;12384;48.112;18.418;2022-07-29T03:24:30;15.97;;;14.87;;
24259;SDS011;12384;48.112;18.418;2022-07-29T03:27:00;17.13;;;16.00;;
24259;SDS011;12384;48.112;18.418;2022-07-29T03:29:29;17.47;;;16.37;;
24259;SDS011;12384;48.112;18.418;2022-07-29T03:32:02;17.13;;;15.93;;
24259;SDS011;12384;48.112;18.418;2022-07-29T03:34:35;16.50;;;15.30;;
24259;SDS011;12384;48.112;18.418;2022-07-29T03:37:05;16.73;;;15.43;;
24259;SDS011;12384;48.112;18.418;2022-07-29T03:39:35;16.83;;;15.70;;
24259;SDS011;12384;48.112;18.418;2022-07-29T03:42:09;17.10;;;16.00;;
24259;SDS011;12384;48.112;18.418;2022-07-29T03:44:42;17.10;;;16.00;;
24259;SDS011;12384;48.112;18.418;2022-07-29T03:47:14;17.20;;;16.13;;
24259;SDS011;12384;48.112;18.418;2022-07-29T03:50:10;17.00;;;15.63;;
24259;SDS011;12384;48.112;18.418;2022-07-29T03:52:41;16.47;;;15.37;;
24259;SDS011;12384;48.112;18.418;2022-07-29T03:55:11;17.00;;;15.87;;
24259;SDS011;12384;48.112;18.418;2022-07-29T03:57:40;16.53;;;15.43;;
24259;SDS011;12384;48.112;18.418;2022-07-29T04:00:09;16.37;;;15.27;;
24259;SDS011;12384;48.112;18.418;2022-07-29T04:02:40;16.33;;;14.97;;
24259;SDS011;12384;48.112;18.418;2022-07-29T04:05:11;15.80;;;14.70;;
24259;SDS011;12384;48.112;18.418;2022-07-29T04:07:43;15.90;;;14.90;;
24259;SDS011;12384;48.112;18.418;2022-07-29T04:10:12;15.60;;;14.63;;
24259;SDS011;12384;48.112;18.418;2022-07-29T04:12:55;16.67;;;15.50;;
24259;SDS011;12384;48.112;18.418;2022-07-29T04:15:24;16.27;;;15.17;;
24259;SDS011;12384;48.112;18.418;2022-07-29T04:17:58;16.50;;;15.40;;
24259;SDS011;12384;48.112;18.418;2022-07-29T04:20:27;16.93;;;15.70;;
24259;SDS011;12384;48.112;18.418;2022-07-29T04:22:56;16.77;;;15.57;;
24259;SDS011;12384;48.112;18.418;2022-07-29T04:25:25;16.77;;;15.73;;
24259;SDS011;12384;48.112;18.418;2022-07-29T04:27:53;15.67;;;14.77;;
24259;SDS011;12384;48.112;18.418;2022-07-29T04:30:29;15.67;;;14.67;;
24259;SDS011;12384;48.112;18.418;2022-07-29T04:32:59;16.73;;;15.63;;
24259;SDS011;12384;48.112;18.418;2022-07-29T04:35:29;17.10;;;15.70;;
24259;SDS011;12384;48.112;18.418;2022-07-29T04:38:04;16.13;;;14.93;;
24259;SDS011;12384;48.112;18.418;2022-07-29T04:40:41;16.40;;;15.20;;
24259;SDS011;12384;48.112;18.418;2022-07-29T04:43:10;15.87;;;14.77;;
24259;SDS011;12384;48.112;18.418;2022-07-29T04:45:41;16.63;;;15.43;;
24259;SDS011;12384;48.112;18.418;2022-07-29T04:48:11;17.10;;;15.80;;
24259;SDS011;12384;48.112;18.418;2022-07-29T04:50:40;16.93;;;15.83;;
24259;SDS011;12384;48.112;18.418;2022-07-29T04:53:09;16.40;;;15.30;;
24259;SDS011;12384;48.112;18.418;2022-07-29T04:55:37;16.83;;;15.53;;
24259;SDS011;12384;48.112;18.418;2022-07-29T04:58:06;15.20;;;14.20;;
24259;SDS011;12384;48.112;18.418;2022-07-29T05:00:35;14.27;;;13.37;;
24259;SDS011;12384;48.112;18.418;2022-07-29T05:03:04;16.00;;;15.00;;
24259;SDS011;12384;48.112;18.418;2022-07-29T05:05:34;15.53;;;14.37;;
24259;SDS011;12384;48.112;18.418;2022-07-29T05:08:03;16.33;;;15.23;;
24259;SDS011;12384;48.112;18.418;2022-07-29T05:10:34;17.50;;;16.13;;
24259;SDS011;12384;48.112;18.418;2022-07-29T05:13:04;16.57;;;15.47;;
24259;SDS011;12384;48.112;18.418;2022-07-29T05:15:34;16.30;;;15.17;;
24259;SDS011;12384;48.112;18.418;2022-07-29T05:18:03;15.70;;;14.70;;
24259;SDS011;12384;48.112;18.418;2022-07-29T05:20:32;15.60;;;14.60;;
24259;SDS011;12384;48.112;18.418;2022-07-29T05:23:03;15.37;;;14.37;;
24259;SDS011;12384;48.112;18.418;2022-07-29T05:25:32;15.10;;;13.83;;
24259;SDS011;12384;48.112;18.418;2022-07-29T05:28:10;15.30;;;14.33;;
24259;SDS011;12384;48.112;18.418;2022-07-29T05:30:39;14.57;;;13.50;;
24259;SDS011;12384;48.112;18.418;2022-07-29T05:33:08;14.37;;;13.47;;
24259;SDS011;12384;48.112;18.418;2022-07-29T05:35:58;14.57;;;13.53;;
24259;SDS011;12384;48.112;18.418;2022-07-29T05:38:27;13.10;;;12.10;;
24259;SDS011;12384;48.112;18.418;2022-07-29T05:40:56;12.77;;;11.93;;
24259;SDS011;12384;48.112;18.418;2022-07-29T05:43:26;12.38;;;11.38;;
24259;SDS011;12384;48.112;18.418;2022-07-29T05:45:55;12.97;;;11.87;;
24259;SDS011;12384;48.112;18.418;2022-07-29T05:48:24;13.70;;;12.60;;
24259;SDS011;12384;48.112;18.418;2022-07-29T05:50:53;12.20;;;11.40;;
24259;SDS011;12384;48.112;18.418;2022-07-29T05:53:23;13.05;;;12.05;;
24259;SDS011;12384;48.112;18.418;2022-07-29T05:55:52;13.82;;;12.55;;
24259;SDS011;12384;48.112;18.418;2022-07-29T05:58:21;13.52;;;12.43;;
24259;SDS011;12384;48.112;18.418;2022-07-29T06:00:50;13.43;;;12.52;;
24259;SDS011;12384;48.112;18.418;2022-07-29T06:03:19;13.55;;;12.57;;
24259;SDS011;12384;48.112;18.418;2022-07-29T06:05:48;13.00;;;11.93;;
24259;SDS011;12384;48.112;18.418;2022-07-29T06:08:17;13.77;;;12.77;;
24259;SDS011;12384;48.112;18.418;2022-07-29T06:10:47;15.00;;;13.70;;
24259;SDS011;12384;48.112;18.418;2022-07-29T06:13:16;14.63;;;13.60;;
24259;SDS011;12384;48.112;18.418;2022-07-29T06:15:45;16.00;;;14.75;;
24259;SDS011;12384;48.112;18.418;2022-07-29T06:18:13;14.93;;;13.95;;
24259;SDS011;12384;48.112;18.418;2022-07-29T06:20:42;14.23;;;13.20;;
24259;SDS011;12384;48.112;18.418;2022-07-29T06:23:11;14.02;;;13.00;;
24259;SDS011;12384;48.112;18.418;2022-07-29T06:25:40;13.57;;;12.70;;
24259;SDS011;12384;48.112;18.418;2022-07-29T06:28:10;14.20;;;13.00;;
24259;SDS011;12384;48.112;18.418;2022-07-29T06:30:39;13.70;;;12.80;;
24259;SDS011;12384;48.112;18.418;2022-07-29T06:33:08;14.00;;;13.00;;
24259;SDS011;12384;48.112;18.418;2022-07-29T06:35:37;14.40;;;13.40;;
24259;SDS011;12384;48.112;18.418;2022-07-29T06:38:08;14.02;;;13.13;;
24259;SDS011;12384;48.112;18.418;2022-07-29T06:40:57;14.18;;;13.20;;
24259;SDS011;12384;48.112;18.418;2022-07-29T06:43:32;14.65;;;13.55;;
24259;SDS011;12384;48.112;18.418;2022-07-29T06:46:18;13.45;;;12.50;;
24259;SDS011;12384;48.112;18.418;2022-07-29T06:48:48;13.57;;;12.55;;
24259;SDS011;12384;48.112;18.418;2022-07-29T06:51:18;13.85;;;12.75;;
24259;SDS011;12384;48.112;18.418;2022-07-29T06:53:49;13.70;;;12.80;;
24259;SDS011;12384;48.112;18.418;2022-07-29T06:56:28;13.25;;;12.35;;
24259;SDS011;12384;48.112;18.418;2022-07-29T06:59:07;15.43;;;14.32;;
24259;SDS011;12384;48.112;18.418;2022-07-29T07:01:37;14.80;;;13.85;;
24259;SDS011;12384;48.112;18.418;2022-07-29T07:04:08;16.40;;;15.20;;
24259;SDS011;12384;48.112;18.418;2022-07-29T07:06:38;16.48;;;15.02;;
24259;SDS011;12384;48.112;18.418;2022-07-29T07:09:07;14.50;;;13.52;;
24259;SDS011;12384;48.112;18.418;2022-07-29T07:11:36;15.77;;;14.60;;
24259;SDS011;12384;48.112;18.418;2022-07-29T07:14:06;15.43;;;14.40;;
24259;SDS011;12384;48.112;18.418;2022-07-29T07:16:35;15.68;;;14.50;;
24259;SDS011;12384;48.112;18.418;2022-07-29T07:19:04;15.60;;;14.05;;
24259;SDS011;12384;48.112;18.418;2022-07-29T07:21:32;16.17;;;14.98;;
24259;SDS011;12384;48.112;18.418;2022-07-29T07:24:02;12.98;;;12.18;;
24259;SDS011;12384;48.112;18.418;2022-07-29T07:26:31;13.75;;;12.68;;
24259;SDS011;12384;48.112;18.418;2022-07-29T07:29:00;14.32;;;13.43;;
24259;SDS011;12384;48.112;18.418;2022-07-29T07:31:30;12.15;;;11.23;;
24259;SDS011;12384;48.112;18.418;2022-07-29T07:33:59;14.27;;;13.05;;
24259;SDS011;12384;48.112;18.418;2022-07-29T07:36:28;14.27;;;12.95;;
24259;SDS011;12384;48.112;18.418;2022-07-29T07:38:57;13.98;;;12.88;;
24259;SDS011;12384;48.112;18.418;2022-07-29T07:41:26;17.20;;;14.55;;
24259;SDS011;12384;48.112;18.418;2022-07-29T07:43:58;15.30;;;14.30;;
24259;SDS011;12384;48.112;18.418;2022-07-29T07:46:27;15.43;;;14.20;;
24259;SDS011;12384;48.112;18.418;2022-07-29T07:48:57;15.00;;;13.90;;
24259;SDS011;12384;48.112;18.418;2022-07-29T07:51:26;14.52;;;13.45;;
24259;SDS011;12384;48.112;18.418;2022-07-29T07:53:55;13.57;;;12.65;;
24259;SDS011;12384;48.112;18.418;2022-07-29T07:56:23;13.23;;;12.32;;
24259;SDS011;12384;48.112;18.418;2022-07-29T07:58:58;13.63;;;12.63;;
24259;SDS011;12384;48.112;18.418;2022-07-29T08:01:27;15.77;;;14.68;;
24259;SDS011;12384;48.112;18.418;2022-07-29T08:04:16;13.27;;;12.32;;
24259;SDS011;12384;48.112;18.418;2022-07-29T08:06:53;13.52;;;12.63;;
24259;SDS011;12384;48.112;18.418;2022-07-29T08:09:22;14.80;;;13.43;;
24259;SDS011;12384;48.112;18.418;2022-07-29T08:11:55;14.15;;;13.10;;
24259;SDS011;12384;48.112;18.418;2022-07-29T08:14:25;15.27;;;14.07;;
24259;SDS011;12384;48.112;18.418;2022-07-29T08:16:54;16.20;;;15.00;;
24259;SDS011;12384;48.112;18.418;2022-07-29T08:19:24;13.95;;;12.70;;
24259;SDS011;12384;48.112;18.418;2022-07-29T08:21:53;15.13;;;13.18;;
24259;SDS011;12384;48.112;18.418;2022-07-29T08:24:22;17.10;;;13.75;;
24259;SDS011;12384;48.112;18.418;2022-07-29T08:27:08;13.30;;;12.30;;
24259;SDS011;12384;48.112;18.418;2022-07-29T08:29:58;12.40;;;11.05;;
24259;SDS011;12384;48.112;18.418;2022-07-29T08:32:26;13.80;;;12.70;;
24259;SDS011;12384;48.112;18.418;2022-07-29T08:35:16;13.77;;;12.60;;
24259;SDS011;12384;48.112;18.418;2022-07-29T08:37:45;12.45;;;11.40;;
24259;SDS011;12384;48.112;18.418;2022-07-29T08:40:14;16.05;;;14.90;;
24259;SDS011;12384;48.112;18.418;2022-07-29T08:42:43;13.50;;;12.50;;
24259;SDS011;12384;48.112;18.418;2022-07-29T08:45:11;13.25;;;12.20;;
24259;SDS011;12384;48.112;18.418;2022-07-29T08:47:40;15.20;;;13.85;;
24259;SDS011;12384;48.112;18.418;2022-07-29T08:50:11;15.27;;;13.82;;
24259;SDS011;12384;48.112;18.418;2022-07-29T08:52:41;14.82;;;13.70;;
24259;SDS011;12384;48.112;18.418;2022-07-29T08:55:10;14.00;;;13.10;;
24259;SDS011;12384;48.112;18.418;2022-07-29T08:57:41;13.07;;;12.05;;
24259;SDS011;12384;48.112;18.418;2022-07-29T09:00:19;11.23;;;10.52;;
24259;SDS011;12384;48.112;18.418;2022-07-29T09:02:55;11.98;;;10.98;;
24259;SDS011;12384;48.112;18.418;2022-07-29T09:05:26;12.23;;;11.25;;
24259;SDS011;12384;48.112;18.418;2022-07-29T09:07:56;11.63;;;10.63;;
24259;SDS011;12384;48.112;18.418;2022-07-29T09:10:26;12.10;;;11.27;;
24259;SDS011;12384;48.112;18.418;2022-07-29T09:12:55;12.80;;;11.77;;
24259;SDS011;12384;48.112;18.418;2022-07-29T09:15:23;11.60;;;10.65;;
24259;SDS011;12384;48.112;18.418;2022-07-29T09:17:52;11.77;;;10.82;;
24259;SDS011;12384;48.112;18.418;2022-07-29T09:20:23;11.57;;;10.77;;
24259;SDS011;12384;48.112;18.418;2022-07-29T09:22:52;12.10;;;11.20;;
24259;SDS011;12384;48.112;18.418;2022-07-29T09:25:35;12.05;;;11.35;;
24259;SDS011;12384;48.112;18.418;2022-07-29T09:28:07;11.00;;;9.95;;
24259;SDS011;12384;48.112;18.418;2022-07-29T09:30:38;10.93;;;10.13;;
24259;SDS011;12384;48.112;18.418;2022-07-29T09:33:19;14.07;;;11.48;;
24259;SDS011;12384;48.112;18.418;2022-07-29T09:35:58;12.70;;;11.80;;
24259;SDS011;12384;48.112;18.418;2022-07-29T09:38:29;12.20;;;11.10;;
24259;SDS011;12384;48.112;18.418;2022-07-29T09:41:00;11.25;;;10.25;;
24259;SDS011;12384;48.112;18.418;2022-07-29T09:43:32;10.15;;;9.10;;
24259;SDS011;12384;48.112;18.418;2022-07-29T09:46:10;11.13;;;10.10;;
24259;SDS011;12384;48.112;18.418;2022-07-29T09:48:39;12.18;;;9.90;;
24259;SDS011;12384;48.112;18.418;2022-07-29T09:51:16;10.05;;;9.25;;
24259;SDS011;12384;48.112;18.418;2022-07-29T09:53:52;9.52;;;8.60;;
24259;SDS011;12384;48.112;18.418;2022-07-29T09:56:24;8.15;;;7.22;;
24259;SDS011;12384;48.112;18.418;2022-07-29T09:59:07;7.38;;;6.65;;
24259;SDS011;12384;48.112;18.418;2022-07-29T10:01:37;5.85;;;5.32;;
24259;SDS011;12384;48.112;18.418;2022-07-29T10:04:06;7.30;;;6.25;;
24259;SDS011;12384;48.112;18.418;2022-07-29T10:06:36;7.18;;;6.22;;
24259;SDS011;12384;48.112;18.418;2022-07-29T10:09:30;7.43;;;6.82;;
24259;SDS011;12384;48.112;18.418;2022-07-29T10:12:08;9.85;;;8.90;;
24259;SDS011;12384;48.112;18.418;2022-07-29T10:14:40;8.88;;;7.97;;
24259;SDS011;12384;48.112;18.418;2022-07-29T10:17:10;9.25;;;8.05;;
24259;SDS011;12384;48.112;18.418;2022-07-29T10:19:39;7.32;;;6.63;;
24259;SDS011;12384;48.112;18.418;2022-07-29T10:22:09;12.13;;;11.13;;
24259;SDS011;12384;48.112;18.418;2022-07-29T10:24:40;11.77;;;10.82;;
24259;SDS011;12384;48.112;18.418;2022-07-29T10:27:10;12.00;;;11.20;;
24259;SDS011;12384;48.112;18.418;2022-07-29T10:29:39;9.00;;;8.40;;
24259;SDS011;12384;48.112;18.418;2022-07-29T10:32:16;8.35;;;7.47;;
24259;SDS011;12384;48.112;18.418;2022-07-29T10:38:10;6.45;;;5.55;;
24259;SDS011;12384;48.112;18.418;2022-07-29T10:40:57;5.15;;;4.75;;
24259;SDS011;12384;48.112;18.418;2022-07-29T10:44:12;12.07;;;4.68;;
24259;SDS011;12384;48.112;18.418;2022-07-29T10:46:48;4.95;;;4.47;;
24259;SDS011;12384;48.112;18.418;2022-07-29T10:49:18;9.38;;;4.20;;
24259;SDS011;12384;48.112;18.418;2022-07-29T10:51:57;5.25;;;4.15;;
24259;SDS011;12384;48.112;18.418;2022-07-29T10:57:26;13.73;;;7.68;;
24259;SDS011;12384;48.112;18.418;2022-07-29T11:00:28;5.93;;;5.30;;
24259;SDS011;12384;48.112;18.418;2022-07-29T11:02:58;9.15;;;5.15;;
24259;SDS011;12384;48.112;18.418;2022-07-29T11:08:25;6.13;;;5.07;;
24259;SDS011;12384;48.112;18.418;2022-07-29T11:14:16;5.20;;;4.68;;
24259;SDS011;12384;48.112;18.418;2022-07-29T11:17:00;5.90;;;4.45;;
24259;SDS011;12384;48.112;18.418;2022-07-29T11:19:32;8.18;;;4.22;;
24259;SDS011;12384;48.112;18.418;2022-07-29T11:22:09;5.22;;;4.72;;
24259;SDS011;12384;48.112;18.418;2022-07-29T11:24:42;5.72;;;3.75;;
24259;SDS011;12384;48.112;18.418;2022-07-29T11:27:17;4.00;;;2.95;;
24259;SDS011;12384;48.112;18.418;2022-07-29T11:29:52;3.47;;;3.17;;
24259;SDS011;12384;48.112;18.418;2022-07-29T11:32:25;3.90;;;3.55;;
24259;SDS011;12384;48.112;18.418;2022-07-29T11:35:10;6.03;;;5.35;;
24259;SDS011;12384;48.112;18.418;2022-07-29T11:37:45;5.70;;;5.20;;
24259;SDS011;12384;48.112;18.418;2022-07-29T11:40:21;6.82;;;6.03;;
24259;SDS011;12384;48.112;18.418;2022-07-29T11:42:50;5.80;;;4.20;;
24259;SDS011;12384;48.112;18.418;2022-07-29T11:45:24;4.97;;;4.57;;
24259;SDS011;12384;48.112;18.418;2022-07-29T11:48:20;5.05;;;4.55;;
24259;SDS011;12384;48.112;18.418;2022-07-29T11:50:58;5.28;;;4.53;;
24259;SDS011;12384;48.112;18.418;2022-07-29T11:53:28;6.65;;;5.00;;
24259;SDS011;12384;48.112;18.418;2022-07-29T11:55:58;8.43;;;5.13;;
24259;SDS011;12384;48.112;18.418;2022-07-29T11:58:29;7.68;;;5.15;;
24259;SDS011;12384;48.112;18.418;2022-07-29T12:00:59;6.40;;;5.90;;
24259;SDS011;12384;48.112;18.418;2022-07-29T12:03:32;6.60;;;5.10;;
24259;SDS011;12384;48.112;18.418;2022-07-29T12:06:03;9.23;;;5.00;;
24259;SDS011;12384;48.112;18.418;2022-07-29T12:08:41;6.75;;;5.95;;
24259;SDS011;12384;48.112;18.418;2022-07-29T12:11:17;7.90;;;6.88;;
24259;SDS011;12384;48.112;18.418;2022-07-29T12:13:49;7.72;;;7.03;;
24259;SDS011;12384;48.112;18.418;2022-07-29T12:16:18;8.23;;;7.10;;
24259;SDS011;12384;48.112;18.418;2022-07-29T12:18:56;10.65;;;7.70;;
24259;SDS011;12384;48.112;18.418;2022-07-29T12:21:27;8.32;;;7.63;;
24259;SDS011;12384;48.112;18.418;2022-07-29T12:23:56;10.82;;;8.18;;
24259;SDS011;12384;48.112;18.418;2022-07-29T12:26:34;10.25;;;9.25;;
24259;SDS011;12384;48.112;18.418;2022-07-29T12:29:06;12.50;;;11.50;;
24259;SDS011;12384;48.112;18.418;2022-07-29T12:31:45;11.50;;;9.73;;
24259;SDS011;12384;48.112;18.418;2022-07-29T12:34:16;11.35;;;10.20;;
24259;SDS011;12384;48.112;18.418;2022-07-29T12:36:44;11.43;;;10.48;;
24259;SDS011;12384;48.112;18.418;2022-07-29T12:39:14;11.90;;;10.75;;
24259;SDS011;12384;48.112;18.418;2022-07-29T12:41:44;12.15;;;11.35;;
24259;SDS011;12384;48.112;18.418;2022-07-29T12:44:13;11.32;;;10.63;;
24259;SDS011;12384;48.112;18.418;2022-07-29T12:46:41;12.93;;;11.70;;
24259;SDS011;12384;48.112;18.418;2022-07-29T12:49:22;9.60;;;8.80;;
24259;SDS011;12384;48.112;18.418;2022-07-29T12:51:50;9.02;;;8.20;;
24259;SDS011;12384;48.112;18.418;2022-07-29T12:54:19;7.75;;;7.05;;
24259;SDS011;12384;48.112;18.418;2022-07-29T12:56:57;7.68;;;7.00;;
24259;SDS011;12384;48.112;18.418;2022-07-29T12:59:27;9.38;;;7.40;;
24259;SDS011;12384;48.112;18.418;2022-07-29T13:01:56;7.47;;;6.78;;
24259;SDS011;12384;48.112;18.418;2022-07-29T13:04:29;10.95;;;10.02;;
24259;SDS011;12384;48.112;18.418;2022-07-29T13:06:59;11.18;;;10.10;;
24259;SDS011;12384;48.112;18.418;2022-07-29T13:09:36;9.95;;;9.10;;
24259;SDS011;12384;48.112;18.418;2022-07-29T13:12:07;13.75;;;12.52;;
24259;SDS011;12384;48.112;18.418;2022-07-29T13:14:37;12.90;;;12.02;;
24259;SDS011;12384;48.112;18.418;2022-07-29T13:17:08;10.93;;;10.23;;
24259;SDS011;12384;48.112;18.418;2022-07-29T13:19:41;11.63;;;10.73;;
24259;SDS011;12384;48.112;18.418;2022-07-29T13:22:11;15.98;;;14.65;;
24259;SDS011;12384;48.112;18.418;2022-07-29T13:24:45;14.80;;;13.80;;
24259;SDS011;12384;48.112;18.418;2022-07-29T13:27:15;11.38;;;10.48;;
24259;SDS011;12384;48.112;18.418;2022-07-29T13:29:44;12.02;;;10.68;;
24259;SDS011;12384;48.112;18.418;2022-07-29T13:32:13;10.07;;;9.15;;
24259;SDS011;12384;48.112;18.418;2022-07-29T13:34:43;9.13;;;7.32;;
24259;SDS011;12384;48.112;18.418;2022-07-29T13:37:12;7.22;;;6.53;;
24259;SDS011;12384;48.112;18.418;2022-07-29T13:39:41;6.90;;;6.20;;
24259;SDS011;12384;48.112;18.418;2022-07-29T13:42:18;10.48;;;5.72;;
24259;SDS011;12384;48.112;18.418;2022-07-29T13:44:47;9.13;;;6.22;;
24259;SDS011;12384;48.112;18.418;2022-07-29T13:47:18;8.63;;;6.90;;
24259;SDS011;12384;48.112;18.418;2022-07-29T13:49:48;7.35;;;5.50;;
24259;SDS011;12384;48.112;18.418;2022-07-29T13:52:17;6.25;;;5.82;;
24259;SDS011;12384;48.112;18.418;2022-07-29T13:54:47;6.88;;;6.28;;
24259;SDS011;12384;48.112;18.418;2022-07-29T13:57:15;10.23;;;7.78;;
24259;SDS011;12384;48.112;18.418;2022-07-29T13:59:44;19.58;;;7.90;;
24259;SDS011;12384;48.112;18.418;2022-07-29T14:02:19;11.50;;;7.25;;
24259;SDS011;12384;48.112;18.418;2022-07-29T14:04:53;8.93;;;8.02;;
24259;SDS011;12384;48.112;18.418;2022-07-29T14:07:22;8.45;;;7.65;;
24259;SDS011;12384;48.112;18.418;2022-07-29T14:09:51;6.70;;;6.20;;
24259;SDS011;12384;48.112;18.418;2022-07-29T14:12:19;7.63;;;6.97;;
24259;SDS011;12384;48.112;18.418;2022-07-29T14:14:49;8.02;;;7.32;;
24259;SDS011;12384;48.112;18.418;2022-07-29T14:17:18;8.27;;;7.70;;
24259;SDS011;12384;48.112;18.418;2022-07-29T14:19:46;8.18;;;7.50;;
24259;SDS011;12384;48.112;18.418;2022-07-29T14:22:17;7.88;;;7.05;;
24259;SDS011;12384;48.112;18.418;2022-07-29T14:24:51;9.25;;;7.78;;
24259;SDS011;12384;48.112;18.418;2022-07-29T14:27:20;9.25;;;8.38;;
24259;SDS011;12384;48.112;18.418;2022-07-29T14:30:04;10.80;;;9.85;;
24259;SDS011;12384;48.112;18.418;2022-07-29T14:32:34;9.25;;;8.35;;
24259;SDS011;12384;48.112;18.418;2022-07-29T14:35:03;9.98;;;9.27;;
24259;SDS011;12384;48.112;18.418;2022-07-29T14:37:34;9.32;;;8.55;;
24259;SDS011;12384;48.112;18.418;2022-07-29T14:40:06;12.13;;;11.00;;
24259;SDS011;12384;48.112;18.418;2022-07-29T14:42:36;11.18;;;10.23;;
24259;SDS011;12384;48.112;18.418;2022-07-29T14:45:06;11.52;;;10.48;;
24259;SDS011;12384;48.112;18.418;2022-07-29T14:47:36;10.65;;;9.85;;
24259;SDS011;12384;48.112;18.418;2022-07-29T14:50:06;9.15;;;8.13;;
24259;SDS011;12384;48.112;18.418;2022-07-29T14:52:37;9.68;;;8.60;;
24259;SDS011;12384;48.112;18.418;2022-07-29T14:55:06;8.93;;;7.93;;
24259;SDS011;12384;48.112;18.418;2022-07-29T14:57:45;9.18;;;8.35;;
24259;SDS011;12384;48.112;18.418;2022-07-29T15:00:15;9.88;;;9.02;;